Time;durP1;ratioP1;P1;durP2;ratioP2;P2;SDS_P1;SDS_P2;PMS_P1;PMS_P2;Temp;Humidity;BMP_temperature;BMP_pressure;BME280_temperature;BME280_humidity;BME280_pressure;Samples;Min_cycle;Max_cycle;Signal;HPM_P1;HPM_P2
2024/04/08 00:02:01;;;;;;;15.17;2.37;;;;;;;;;;5042096;28;20194;-61
2024/04/08 00:04:27;;;;;;;13.10;2.80;;;;;;;;;;5041637;28;20194;-61
2024/04/08 00:06:54;;;;;;;10.87;1.80;;;;;;;;;;5053204;28;20214;-62
2024/04/08 00:09:20;;;;;;;14.77;2.03;;;;;;;;;;5042625;28;20615;-62
2024/04/08 00:11:48;;;;;;;13.63;2.47;;;;;;;;;;5041291;28;20550;-61
2024/04/08 00:14:15;;;;;;;10.90;2.30;;;;;;;;;;5043793;28;20253;-62
2024/04/08 00:16:42;;;;;;;15.20;2.93;;;;;;;;;;5050739;28;20226;-62
2024/04/08 00:19:09;;;;;;;13.83;2.10;;;;;;;;;;5043452;28;20202;-62
2024/04/08 00:21:36;;;;;;;13.37;2.33;;;;;;;;;;5052791;28;20273;-62
2024/04/08 00:24:02;;;;;;;13.87;3.27;;;;;;;;;;5047954;28;20260;-62
2024/04/08 00:26:30;;;;;;;10.93;2.97;;;;;;;;;;5044308;28;20712;-62
2024/04/08 00:28:56;;;;;;;12.63;2.07;;;;;;;;;;5035595;28;20203;-62
2024/04/08 00:31:24;;;;;;;6.33;1.63;;;;;;;;;;5034846;28;20214;-62
2024/04/08 00:33:51;;;;;;;9.83;1.50;;;;;;;;;;5050370;28;20203;-62
2024/04/08 00:36:18;;;;;;;18.27;2.30;;;;;;;;;;5041103;28;20214;-62
2024/04/08 00:38:44;;;;;;;10.23;1.43;;;;;;;;;;5049598;28;20214;-62
2024/04/08 00:41:11;;;;;;;15.53;2.33;;;;;;;;;;5046893;28;20202;-62
2024/04/08 00:43:37;;;;;;;14.40;3.03;;;;;;;;;;5052955;28;20293;-62
2024/04/08 00:46:06;;;;;;;11.40;2.47;;;;;;;;;;5053077;28;20217;-62
2024/04/08 00:48:34;;;;;;;6.57;1.93;;;;;;;;;;5052150;28;20621;-62
2024/04/08 00:51:02;;;;;;;14.47;1.77;;;;;;;;;;5047296;28;20686;-62
2024/04/08 00:53:28;;;;;;;13.70;3.13;;;;;;;;;;5039038;28;20206;-62
2024/04/08 00:55:56;;;;;;;10.97;2.10;;;;;;;;;;5052910;28;20223;-62
2024/04/08 00:58:22;;;;;;;7.47;1.90;;;;;;;;;;5052115;28;20225;-62
2024/04/08 01:00:49;;;;;;;16.07;2.33;;;;;;;;;;5052598;28;20236;-62
2024/04/08 01:03:17;;;;;;;13.90;2.90;;;;;;;;;;5044683;28;20237;-62
2024/04/08 01:05:47;;;;;;;15.33;1.93;;;;;;;;;;5043438;28;20672;-62
2024/04/08 01:08:14;;;;;;;12.07;1.73;;;;;;;;;;5037689;28;20567;-62
2024/04/08 01:10:41;;;;;;;11.87;1.97;;;;;;;;;;5033511;28;20674;-62
2024/04/08 01:13:07;;;;;;;21.10;2.33;;;;;;;;;;5032460;28;20268;-62
2024/04/08 01:15:34;;;;;;;10.03;2.13;;;;;;;;;;5041683;28;20222;-62
2024/04/08 01:18:01;;;;;;;10.97;1.97;;;;;;;;;;5043724;28;20218;-62
2024/04/08 01:20:28;;;;;;;17.03;3.73;;;;;;;;;;5052567;28;20205;-62
2024/04/08 01:23:00;;;;;;;17.23;2.70;;;;;;;;;;5052694;28;20213;-62
2024/04/08 01:25:29;;;;;;;17.80;3.00;;;;;;;;;;5050422;28;20235;-62
2024/04/08 01:27:58;;;;;;;22.03;2.37;;;;;;;;;;5047453;28;20217;-62
2024/04/08 01:30:25;;;;;;;10.87;4.17;;;;;;;;;;5040208;28;20195;-62
2024/04/08 01:32:55;;;;;;;8.37;1.97;;;;;;;;;;5032042;28;20202;-61
2024/04/08 01:35:22;;;;;;;15.67;2.47;;;;;;;;;;5045603;28;20304;-62
2024/04/08 01:37:48;;;;;;;8.93;2.10;;;;;;;;;;5042534;28;20229;-62
2024/04/08 01:40:16;;;;;;;16.60;2.33;;;;;;;;;;5044439;28;20569;-62
2024/04/08 01:42:43;;;;;;;14.67;2.53;;;;;;;;;;5041097;28;20190;-62
2024/04/08 01:45:10;;;;;;;9.33;2.63;;;;;;;;;;5031757;28;20714;-62
2024/04/08 01:47:37;;;;;;;11.37;2.00;;;;;;;;;;5031519;28;20199;-61
2024/04/08 01:50:04;;;;;;;13.77;3.83;;;;;;;;;;5032094;28;20209;-62
2024/04/08 01:52:30;;;;;;;17.47;2.10;;;;;;;;;;5041352;28;20202;-62
2024/04/08 01:54:58;;;;;;;14.23;2.37;;;;;;;;;;5041902;28;20214;-62
2024/04/08 01:57:24;;;;;;;11.77;2.33;;;;;;;;;;5051807;28;20264;-62
2024/04/08 01:59:52;;;;;;;10.63;3.17;;;;;;;;;;5049103;28;20190;-62
2024/04/08 02:02:19;;;;;;;19.73;2.93;;;;;;;;;;5041615;28;20197;-62
2024/04/08 02:04:46;;;;;;;10.90;2.60;;;;;;;;;;5039734;28;20202;-62
2024/04/08 02:07:12;;;;;;;10.07;3.03;;;;;;;;;;5043072;28;20677;-62
2024/04/08 02:09:39;;;;;;;9.50;2.37;;;;;;;;;;5050714;28;20202;-62
2024/04/08 02:12:06;;;;;;;9.33;2.17;;;;;;;;;;5051512;28;20197;-62
2024/04/08 02:14:33;;;;;;;14.27;2.13;;;;;;;;;;5051437;28;20240;-62
2024/04/08 02:17:01;;;;;;;11.10;2.23;;;;;;;;;;5035171;28;20912;-62
2024/04/08 02:19:28;;;;;;;12.83;3.10;;;;;;;;;;5036852;28;20202;-61
2024/04/08 02:21:55;;;;;;;9.70;2.37;;;;;;;;;;5031439;28;20677;-62
2024/04/08 02:24:22;;;;;;;13.60;2.30;;;;;;;;;;5029254;28;20199;-62
2024/04/08 02:26:48;;;;;;;11.07;2.87;;;;;;;;;;5031236;28;20276;-62
2024/04/08 02:29:15;;;;;;;14.07;2.40;;;;;;;;;;5032723;28;20213;-61
2024/04/08 02:31:42;;;;;;;11.40;2.37;;;;;;;;;;5043890;28;20247;-62
2024/04/08 02:34:10;;;;;;;17.77;2.63;;;;;;;;;;5051370;28;20198;-62
2024/04/08 02:36:37;;;;;;;15.03;2.90;;;;;;;;;;5051340;28;20226;-62
2024/04/08 02:39:04;;;;;;;11.73;2.40;;;;;;;;;;5050502;28;20197;-62
2024/04/08 02:41:30;;;;;;;17.40;3.67;;;;;;;;;;5049778;28;20202;-62
2024/04/08 02:43:57;;;;;;;22.30;2.80;;;;;;;;;;5042929;28;20189;-62
2024/04/08 02:46:24;;;;;;;9.37;2.50;;;;;;;;;;5051206;28;20225;-62
2024/04/08 02:48:51;;;;;;;11.73;2.30;;;;;;;;;;5042698;28;20658;-62
2024/04/08 02:51:19;;;;;;;14.77;2.87;;;;;;;;;;5035017;28;20210;-62
2024/04/08 02:53:46;;;;;;;13.50;3.30;;;;;;;;;;5035127;28;20202;-62
2024/04/08 02:56:12;;;;;;;6.33;2.07;;;;;;;;;;5051183;28;20308;-62
2024/04/08 02:58:40;;;;;;;4.77;2.07;;;;;;;;;;5052038;28;20213;-62
2024/04/08 03:01:09;;;;;;;10.20;1.40;;;;;;;;;;5053772;28;20244;-62
2024/04/08 03:03:36;;;;;;;12.27;1.77;;;;;;;;;;5046712;28;20194;-62
2024/04/08 03:06:07;;;;;;;5.60;1.03;;;;;;;;;;5050714;28;20214;-62
2024/04/08 03:08:35;;;;;;;12.13;1.60;;;;;;;;;;5034098;28;20264;-62
2024/04/08 03:11:02;;;;;;;9.93;2.20;;;;;;;;;;5040547;28;20229;-62
2024/04/08 03:13:29;;;;;;;8.30;1.90;;;;;;;;;;5047125;28;20202;-62
2024/04/08 03:15:55;;;;;;;7.87;1.63;;;;;;;;;;5054102;28;20234;-62
2024/04/08 03:18:23;;;;;;;5.43;1.67;;;;;;;;;;5053731;28;20226;-62
2024/04/08 03:20:55;;;;;;;8.07;2.10;;;;;;;;;;5035210;28;20621;-62
2024/04/08 03:23:22;;;;;;;9.87;1.93;;;;;;;;;;5042594;28;20198;-62
2024/04/08 03:25:57;;;;;;;6.80;1.90;;;;;;;;;;5046008;28;20225;-62
2024/04/08 03:28:25;;;;;;;11.20;1.40;;;;;;;;;;5052344;28;20343;-62
2024/04/08 03:30:51;;;;;;;9.13;1.57;;;;;;;;;;5041549;28;20249;-62
2024/04/08 03:33:21;;;;;;;10.57;1.60;;;;;;;;;;5034515;28;20297;-62
2024/04/08 03:35:47;;;;;;;14.63;3.07;;;;;;;;;;5038760;28;20268;-62
2024/04/08 03:38:14;;;;;;;6.33;1.63;;;;;;;;;;5041837;28;20365;-62
2024/04/08 03:40:41;;;;;;;8.27;1.73;;;;;;;;;;5034314;28;20217;-62
2024/04/08 03:43:10;;;;;;;7.87;1.60;;;;;;;;;;5034419;28;20210;-61
2024/04/08 03:45:38;;;;;;;5.67;2.40;;;;;;;;;;5044610;28;20225;-62
2024/04/08 03:48:05;;;;;;;6.67;1.83;;;;;;;;;;5044889;28;20225;-62
2024/04/08 03:50:34;;;;;;;11.30;1.93;;;;;;;;;;5054291;28;20206;-62
2024/04/08 03:53:01;;;;;;;7.23;1.37;;;;;;;;;;5054130;28;20193;-62
2024/04/08 03:55:28;;;;;;;12.10;3.03;;;;;;;;;;5053989;28;20226;-62
2024/04/08 03:57:55;;;;;;;5.30;1.63;;;;;;;;;;5048824;28;20265;-62
2024/04/08 04:00:23;;;;;;;8.10;1.83;;;;;;;;;;5047479;28;20245;-62
2024/04/08 04:02:51;;;;;;;4.43;1.63;;;;;;;;;;5052362;28;20201;-62
2024/04/08 04:05:18;;;;;;;11.00;2.03;;;;;;;;;;5047211;28;20280;-62
2024/04/08 04:07:45;;;;;;;4.07;1.30;;;;;;;;;;5050734;28;20708;-62
2024/04/08 04:10:12;;;;;;;10.00;2.20;;;;;;;;;;5052911;28;20210;-62
2024/04/08 04:12:39;;;;;;;8.03;1.47;;;;;;;;;;5045216;28;20629;-62
2024/04/08 04:15:06;;;;;;;8.37;2.30;;;;;;;;;;5053503;28;20233;-63
2024/04/08 04:17:34;;;;;;;5.83;2.73;;;;;;;;;;5052821;28;20221;-63
2024/04/08 04:20:03;;;;;;;13.40;2.37;;;;;;;;;;5052589;28;20677;-63
2024/04/08 04:22:30;;;;;;;3.27;1.20;;;;;;;;;;5051729;28;20222;-63
2024/04/08 04:24:56;;;;;;;6.53;1.83;;;20.80;85.30;;;;;;5043275;28;20225;-63
2024/04/08 04:27:23;;;;;;;7.77;1.40;;;20.80;85.30;;;;;;5045093;28;20186;-63
2024/04/08 04:29:50;;;;;;;8.97;1.90;;;20.70;85.70;;;;;;5040198;28;20260;-63
2024/04/08 04:32:16;;;;;;;5.97;1.47;;;20.60;85.60;;;;;;5033347;28;20203;-63
2024/04/08 04:34:44;;;;;;;8.87;1.77;;;20.50;86.80;;;;;;5036806;28;20624;-63
2024/04/08 04:37:11;;;;;;;7.23;2.10;;;20.50;85.70;;;;;;5044862;28;20197;-63
2024/04/08 04:39:37;;;;;;;7.77;2.37;;;20.40;86.50;;;;;;5052363;28;20453;-63
2024/04/08 04:42:04;;;;;;;9.90;2.97;;;20.30;91.00;;;;;;5052986;28;20213;-63
2024/04/08 04:44:30;;;;;;;14.00;4.83;;;20.20;93.90;;;;;;5037630;28;20206;-63
2024/04/08 04:46:57;;;;;;;9.73;3.30;;;19.80;95.90;;;;;;5047568;28;20268;-63
2024/04/08 04:49:23;;;;;;;15.97;3.93;;;19.50;97.80;;;;;;5046380;28;20209;-63
2024/04/08 04:51:52;;;;;;;12.80;4.20;;;19.10;98.80;;;;;;5044512;28;20688;-63
2024/04/08 04:54:18;;;;;;;9.00;2.97;;;18.60;99.90;;;;;;5052195;28;20701;-63
2024/04/08 04:56:45;;;;;;;12.63;4.30;;;18.10;99.90;;;;;;5040007;28;20229;-63
2024/04/08 04:59:11;;;;;;;14.03;2.97;;;17.90;99.90;;;;;;5046106;28;20309;-63
2024/04/08 05:01:38;;;;;;;7.10;2.83;;;17.70;99.90;;;;;;5049718;28;20230;-63
2024/04/08 05:04:04;;;;;;;7.43;2.53;;;17.70;99.90;;;;;;5052786;28;20201;-63
2024/04/08 05:06:31;;;;;;;10.83;4.07;;;17.50;99.90;;;;;;5052754;28;20218;-63
2024/04/08 05:08:59;;;;;;;12.67;4.13;;;17.00;99.90;;;;;;5046298;28;20201;-62
2024/04/08 05:11:26;;;;;;;7.27;4.57;;;16.60;99.90;;;;;;5043955;28;20677;-62
2024/04/08 05:13:52;;;;;;;9.77;3.13;;;16.50;99.90;;;;;;5040276;28;20256;-62
2024/04/08 05:16:20;;;;;;;9.83;4.13;;;16.40;99.90;;;;;;5048069;28;20229;-62
2024/04/08 05:18:47;;;;;;;5.03;3.57;;;16.30;99.90;;;;;;5039451;28;20229;-62
2024/04/08 05:21:14;;;;;;;7.93;3.07;;;16.10;99.90;;;;;;5035527;28;20206;-62
2024/04/08 05:23:43;;;;;;;7.93;3.80;;;16.00;99.90;;;;;;5044366;28;20225;-62
2024/04/08 05:26:12;;;;;;;7.23;3.80;;;15.90;99.90;;;;;;5036818;28;20236;-62
2024/04/08 05:28:38;;;;;;;8.20;3.30;;;15.80;99.90;;;;;;5037787;28;20682;-62
2024/04/08 05:31:06;;;;;;;5.00;4.50;;;15.80;99.90;;;;;;5037801;28;20198;-62
2024/04/08 05:33:33;;;;;;;7.43;3.37;;;15.70;99.90;;;;;;5047110;28;20206;-62
2024/04/08 05:36:00;;;;;;;7.00;3.77;;;15.70;99.90;;;;;;5036228;28;20225;-62
2024/04/08 05:38:26;;;;;;;9.33;3.37;;;15.70;99.90;;;;;;5037459;28;21043;-63
2024/04/08 05:40:53;;;;;;;6.10;3.47;;;15.80;99.90;;;;;;5037215;28;20197;-62
2024/04/08 05:43:21;;;;;;;6.10;3.50;;;15.90;99.90;;;;;;5039789;28;20658;-62
2024/04/08 05:45:49;;;;;;;7.43;3.93;;;16.00;99.90;;;;;;5042238;28;20226;-62
2024/04/08 05:48:15;;;;;;;9.57;3.40;;;16.00;99.90;;;;;;5040553;28;20653;-62
2024/04/08 05:50:42;;;;;;;8.10;3.47;;;16.10;99.90;;;;;;5034196;28;20245;-62
2024/04/08 05:53:08;;;;;;;6.47;3.17;;;16.20;99.90;;;;;;5038718;28;20203;-62
2024/04/08 05:55:35;;;;;;;7.00;3.40;;;16.30;99.90;;;;;;5044269;28;20300;-62
2024/04/08 05:58:03;;;;;;;8.67;3.07;;;16.30;99.90;;;;;;5037712;28;20214;-62
2024/04/08 06:00:35;;;;;;;10.23;3.57;;;16.40;99.90;;;;;;5041593;28;20198;-62
2024/04/08 06:03:01;;;;;;;10.90;4.80;;;16.60;99.90;;;;;;5045952;28;20202;-62
2024/04/08 06:05:28;;;;;;;13.13;3.33;;;16.80;99.90;;;;;;5038517;28;20214;-62
2024/04/08 06:07:56;;;;;;;8.30;3.30;;;16.70;99.90;;;;;;5044221;28;20940;-62
2024/04/08 06:10:30;;;;;;;9.77;3.22;;;16.70;99.90;;;;;;5042932;28;20450;-69
2024/04/08 06:12:58;;;;;;;14.60;4.40;;;16.90;99.90;;;;;;5038830;28;20198;-63
2024/04/08 06:15:25;;;;;;;4.47;3.03;;;17.00;99.90;;;;;;5041470;28;20229;-66
2024/04/08 06:17:55;;;;;;;12.07;4.07;;;17.00;99.90;;;;;;5042787;28;20225;-65
2024/04/08 06:20:23;;;;;;;7.73;2.90;;;17.20;99.90;;;;;;5044687;28;20202;-66
2024/04/08 06:22:49;;;;;;;6.13;3.00;;;17.20;99.90;;;;;;5046407;28;20202;-67
2024/04/08 06:25:16;;;;;;;14.87;4.73;;;17.40;99.90;;;;;;5040751;28;20220;-66
2024/04/08 06:27:42;;;;;;;11.37;3.30;;;17.60;99.90;;;;;;5050495;28;20198;-67
2024/04/08 06:30:11;;;;;;;9.70;3.13;;;17.80;99.90;;;;;;5049105;28;20747;-68
2024/04/08 06:32:37;;;;;;;7.17;2.93;;;18.10;99.90;;;;;;5051419;28;20201;-68
2024/04/08 06:35:06;;;;;;;6.70;3.10;;;18.40;99.90;;;;;;5049144;28;20244;-70
2024/04/08 06:37:32;;;;;;;14.03;3.67;;;18.60;99.90;;;;;;5051113;28;20236;-69
2024/04/08 06:39:59;;;;;;;6.23;2.83;;;19.00;99.90;;;;;;5046966;28;20670;-71
2024/04/08 06:42:25;;;;;;;8.63;4.70;;;19.50;99.90;;;;;;5030159;28;20211;-63
2024/04/08 06:44:52;;;;;;;10.13;3.10;;;19.70;99.90;;;;;;5030341;28;20685;-63
2024/04/08 06:47:19;;;;;;;7.33;2.93;;;20.10;99.90;;;;;;5035991;28;20207;-63
2024/04/08 06:49:48;;;;;;;7.87;3.43;;;20.40;99.90;;;;;;5036285;28;20256;-63
2024/04/08 06:52:15;;;;;;;9.37;3.77;;;20.80;99.90;;;;;;5037840;28;20720;-64
2024/04/08 06:54:44;;;;;;;6.67;2.40;;;21.20;99.90;;;;;;5048192;28;20284;-63
2024/04/08 06:57:10;;;;;;;9.87;3.73;;;21.60;99.90;;;;;;5051080;28;20209;-64
2024/04/08 06:59:37;;;;;;;10.40;3.20;;;21.80;99.90;;;;;;5050104;28;20751;-64
2024/04/08 07:02:04;;;;;;;16.33;5.17;;;22.20;99.90;;;;;;5049109;28;20287;-64
2024/04/08 07:04:31;;;;;;;15.07;4.73;;;22.60;99.90;;;;;;5050670;28;20193;-63
2024/04/08 07:06:58;;;;;;;6.07;3.03;;;22.80;99.90;;;;;;5051038;28;20222;-63
2024/04/08 07:09:29;;;;;;;8.50;3.17;;;23.10;99.90;;;;;;5050100;28;20243;-64
2024/04/08 07:11:57;;;;;;;9.10;2.70;;;23.20;99.90;;;;;;5050883;28;20202;-64
2024/04/08 07:14:24;;;;;;;11.07;2.93;;;23.40;99.90;;;;;;5050699;28;20575;-64
2024/04/08 07:16:50;;;;;;;10.83;3.20;;;23.30;99.90;;;;;;5050687;28;20225;-64
2024/04/08 07:19:17;;;;;;;10.07;3.50;;;23.40;99.90;;;;;;5050202;28;20225;-64
2024/04/08 07:21:43;;;;;;;11.63;3.83;;;23.80;99.90;;;;;;5049941;28;20260;-64
2024/04/08 07:24:10;;;;;;;6.43;2.60;;;24.00;99.90;;;;;;5032542;28;20202;-64
2024/04/08 07:26:38;;;;;;;12.30;3.27;;;24.40;99.90;;;;;;5030816;28;20229;-63
2024/04/08 07:29:05;;;;;;;9.47;3.27;;;24.70;99.90;;;;;;5030500;28;20209;-63
2024/04/08 07:31:31;;;;;;;11.40;3.93;;;24.70;99.90;;;;;;5042580;28;20205;-64
2024/04/08 07:33:58;;;;;;;10.83;2.93;;;24.80;99.90;;;;;;5050586;28;20209;-64
2024/04/08 07:36:24;;;;;;;11.13;2.30;;;25.00;99.90;;;;;;5051056;28;20225;-64
2024/04/08 07:38:51;;;;;;;13.63;3.10;;;25.10;99.90;;;;;;5033565;28;20383;-64
2024/04/08 07:41:17;;;;;;;10.43;2.80;;;25.30;99.90;;;;;;5034277;28;20202;-64
2024/04/08 07:43:46;;;;;;;7.43;2.13;;;25.50;99.90;;;;;;5034241;28;20264;-64
2024/04/08 07:46:12;;;;;;;13.43;3.47;;;25.90;99.90;;;;;;5034327;28;20288;-64
2024/04/08 07:48:39;;;;;;;7.97;2.67;;;26.10;99.90;;;;;;5046536;28;20685;-64
2024/04/08 07:51:05;;;;;;;11.23;2.40;;;25.90;99.90;;;;;;5051077;28;20213;-64
2024/04/08 07:53:34;;;;;;;10.37;2.60;;;25.90;99.90;;;;;;5053179;28;20194;-64
2024/04/08 07:56:00;;;;;;;4.13;2.20;;;26.20;99.90;;;;;;5053812;28;20225;-64
2024/04/08 07:58:29;;;;;;;8.20;2.70;;;26.30;99.90;;;;;;5049891;28;20211;-64
2024/04/08 08:00:57;;;;;;;12.57;3.43;;;26.70;97.40;;;;;;5052573;28;20272;-64
2024/04/08 08:03:26;;;;;;;17.03;3.07;;;27.00;95.90;;;;;;5053523;28;20588;-64
2024/04/08 08:05:52;;;;;;;13.27;3.23;;;27.30;94.60;;;;;;5053825;28;20222;-63
2024/04/08 08:08:19;;;;;;;11.73;3.33;;;27.70;93.80;;;;;;5040524;28;20221;-63
2024/04/08 08:10:46;;;;;;;17.05;4.15;;;28.10;93.30;;;;;;5033725;28;20202;-63
2024/04/08 08:13:13;;;;;;;12.65;2.92;;;28.60;93.40;;;;;;5033721;28;20293;-63
2024/04/08 08:15:40;;;;;;;9.45;2.85;;;28.90;91.40;;;;;;5033555;28;20234;-63
2024/04/08 08:18:08;;;;;;;11.02;2.60;;;28.90;92.10;;;;;;5033021;28;20226;-64
2024/04/08 08:20:36;;;;;;;11.50;3.17;;;28.60;90.70;;;;;;5033722;28;20198;-63
2024/04/08 08:23:03;;;;;;;15.18;3.00;;;29.00;91.00;;;;;;5033498;28;20206;-63
2024/04/08 08:25:35;;;;;;;13.43;3.33;;;28.80;91.60;;;;;;5052423;28;20240;-63
2024/04/08 08:28:01;;;;;;;11.65;2.92;;;28.70;91.80;;;;;;5052613;28;20731;-64
2024/04/08 08:30:28;;;;;;;10.38;3.85;;;29.20;92.70;;;;;;5053349;28;20198;-63
2024/04/08 08:32:57;;;;;;;12.73;3.70;;;29.60;92.80;;;;;;5053788;28;20608;-63
2024/04/08 08:35:24;;;;;;;12.73;3.17;;;29.70;92.30;;;;;;5051102;28;20225;-63
2024/04/08 08:37:51;;;;;;;17.70;3.03;;;30.00;93.40;;;;;;5052296;28;20198;-63
2024/04/08 08:40:20;;;;;;;12.00;2.95;;;29.50;90.10;;;;;;5050356;28;20797;-63
2024/04/08 08:42:51;;;;;;;17.70;3.28;;;29.10;88.70;;;;;;5053113;28;20200;-63
2024/04/08 08:45:17;;;;;;;14.35;2.88;;;28.90;87.70;;;;;;5053125;28;20225;-64
2024/04/08 08:47:45;;;;;;;11.55;2.55;;;29.00;91.50;;;;;;5052140;28;20202;-63
2024/04/08 08:50:11;;;;;;;12.23;2.63;;;29.00;87.40;;;;;;5052942;28;20201;-63
2024/04/08 08:52:40;;;;;;;12.63;2.65;;;29.00;90.30;;;;;;5053183;28;20300;-65
2024/04/08 08:55:06;;;;;;;11.60;2.22;;;29.20;90.50;;;;;;5052862;28;20217;-64
2024/04/08 08:57:34;;;;;;;14.13;2.00;;;29.40;89.00;;;;;;5042300;28;20195;-63
2024/04/08 09:00:05;;;;;;;11.48;2.17;;;29.20;90.00;;;;;;5031935;28;20229;-63
2024/04/08 09:02:33;;;;;;;10.05;2.47;;;29.40;86.30;;;;;;5037816;28;20200;-65
2024/04/08 09:04:59;;;;;;;9.82;2.95;;;29.50;88.40;;;;;;5052722;28;20649;-65
2024/04/08 09:07:26;;;;;;;10.93;2.65;;;29.90;91.80;;;;;;5052981;28;20233;-64
2024/04/08 09:09:54;;;;;;;12.07;2.67;;;30.10;89.50;;;;;;5052090;28;20260;-65
2024/04/08 09:12:21;;;;;;;11.27;2.17;;;30.20;88.20;;;;;;5052527;28;20207;-64
2024/04/08 09:14:49;;;;;;;12.60;3.50;;;30.20;84.20;;;;;;5046985;28;20881;-64
2024/04/08 09:17:17;;;;;;;6.13;1.67;;;30.20;83.60;;;;;;5038787;28;20198;-64
2024/04/08 09:19:43;;;;;;;7.15;2.05;;;30.50;83.80;;;;;;5040573;28;20236;-65
2024/04/08 09:22:11;;;;;;;12.23;2.47;;;30.60;85.10;;;;;;5043206;28;20240;-64
2024/04/08 09:24:37;;;;;;;12.48;2.53;;;30.50;90.90;;;;;;5045300;28;20573;-65
2024/04/08 09:27:06;;;;;;;12.20;2.00;;;;;;;;;;5038052;28;20233;-65
2024/04/08 09:29:32;;;;;;;9.18;1.70;;;;;;;;;;5042359;28;20684;-65
2024/04/08 09:32:00;;;;;;;11.15;2.53;;;;;;;;;;5042668;28;20216;-64
2024/04/08 09:34:27;;;;;;;9.18;1.88;;;;;;;;;;5044375;28;20233;-65
2024/04/08 09:36:56;;;;;;;11.30;2.22;;;;;;;;;;5044925;28;20218;-64
2024/04/08 09:39:23;;;;;;;11.57;2.72;;;;;;;;;;5042339;28;20250;-65
2024/04/08 09:41:51;;;;;;;12.88;2.42;;;;;;;;;;5047432;28;20285;-64
2024/04/08 09:44:19;;;;;;;13.48;2.17;;;;;;;;;;5041502;28;20213;-64
2024/04/08 09:46:47;;;;;;;16.17;2.40;;;;;;;;;;5042075;28;20226;-64
2024/04/08 09:49:13;;;;;;;6.88;1.88;;;;;;;;;;5045893;28;20201;-64
2024/04/08 09:51:41;;;;;;;10.35;2.55;;;;;;;;;;5043467;28;20632;-64
2024/04/08 09:54:08;;;;;;;12.23;2.22;;;;;;;;;;5046434;28;20290;-64
2024/04/08 09:56:37;;;;;;;9.02;2.10;;;;;;;;;;5039980;28;20210;-64
2024/04/08 09:59:08;;;;;;;9.70;1.92;;;;;;;;;;5032944;28;20217;-64
2024/04/08 10:01:37;;;;;;;11.00;2.08;;;;;;;;;;5039999;28;20198;-64
2024/04/08 10:04:05;;;;;;;19.45;1.98;;;;;;;;;;5040434;28;20198;-64
2024/04/08 10:06:31;;;;;;;7.50;2.20;;;;;;;;;;5049746;28;20222;-64
2024/04/08 10:08:59;;;;;;;12.10;1.83;;;;;;;;;;5037913;28;20576;-64
2024/04/08 10:11:25;;;;;;;9.60;1.90;;;;;;;;;;5041987;28;20201;-63
2024/04/08 10:13:52;;;;;;;11.50;1.52;;;;;;;;;;5044142;28;20205;-63
2024/04/08 10:16:19;;;;;;;14.27;2.55;;;;;;;;;;5048745;28;20234;-64
2024/04/08 10:18:54;;;;;;;16.45;2.85;;;;;;;;;;5030485;28;20594;-64
2024/04/08 10:21:20;;;;;;;8.98;2.00;;;;;;;;;;5031336;28;20209;-63
2024/04/08 10:23:48;;;;;;;4.60;2.05;;;;;;;;;;5031253;28;20246;-63
2024/04/08 10:26:15;;;;;;;15.85;2.67;;;;;;;;;;5043735;28;20226;-63
2024/04/08 10:28:42;;;;;;;12.15;2.35;;;;;;;;;;5050537;28;20202;-64
2024/04/08 10:31:09;;;;;;;8.80;2.20;;;;;;;;;;5046743;28;20203;-63
2024/04/08 10:33:36;;;;;;;5.50;2.20;;;;;;;;;;5046871;28;20201;-63
2024/04/08 10:36:05;;;;;;;10.20;1.83;;;;;;;;;;5049149;28;20222;-63
2024/04/08 10:38:32;;;;;;;13.13;1.83;;;;;;;;;;5041273;28;20241;-63
2024/04/08 10:41:05;;;;;;;8.15;1.83;;;;;;;;;;5031270;28;20210;-64
2024/04/08 10:43:32;;;;;;;16.00;1.80;;;;;;;;;;5029227;28;20205;-63
2024/04/08 10:45:59;;;;;;;11.07;2.45;;;;;;;;;;5030871;28;20601;-63
2024/04/08 10:48:26;;;;;;;10.05;1.80;;;;;;;;;;5037073;28;20289;-63
2024/04/08 10:50:52;;;;;;;13.38;1.80;;;;;;;;;;5043872;28;20205;-64
2024/04/08 10:53:21;;;;;;;9.45;2.22;;;;;;;;;;5031451;28;20289;-64
2024/04/08 10:57:43;;;;;;;9.05;1.55;;;;;;;;;;5580163;25;20576;-64
2024/04/08 11:00:09;;;;;;;16.52;2.47;;;;;;;;;;5551035;25;20253;-63
2024/04/08 11:02:38;;;;;;;11.00;2.65;;;;;;;;;;5559588;25;20228;-64
2024/04/08 11:05:05;;;;;;;19.58;3.13;;;;;;;;;;5459071;21;20255;-58
2024/04/08 11:07:37;;;;;;;14.73;1.70;;;;;;;;;;5415198;26;20314;-59
2024/04/08 11:10:04;;;;;;;11.18;2.75;;;;;;;;;;5402761;26;20226;-59
2024/04/08 11:12:33;;;;;;;10.93;2.47;;;;;;;;;;5408317;26;20224;-59
2024/04/08 11:15:03;;;;;;;13.38;2.35;;;;;;;;;;5424493;26;20238;-59
2024/04/08 11:17:32;;;;;;;11.52;2.08;;;;;;;;;;5418366;26;20285;-59
2024/04/08 11:19:59;;;;;;;13.13;2.58;;;;;;;;;;5422994;26;21037;-59
2024/04/08 11:22:28;;;;;;;16.25;3.33;;;;;;;;;;5429846;26;20290;-59
2024/04/08 11:24:55;;;;;;;15.38;1.90;;;;;;;;;;5419922;26;20273;-59
2024/04/08 11:27:24;;;;;;;13.20;2.28;;;;;;;;;;5418186;26;20242;-59
2024/04/08 11:29:51;;;;;;;18.60;2.20;;;;;;;;;;5421742;26;20231;-60
2024/04/08 11:32:22;;;;;;;14.50;2.15;;;;;;;;;;5420508;26;20746;-59
2024/04/08 11:34:49;;;;;;;7.03;2.60;;;;;;;;;;5418859;26;20236;-59
2024/04/08 11:37:18;;;;;;;11.90;2.13;;;;;;;;;;5418945;26;20734;-59
2024/04/08 11:39:45;;;;;;;9.73;1.80;;;;;;;;;;5418120;26;20239;-59
2024/04/08 11:42:14;;;;;;;9.57;1.85;;;;;;;;;;5422267;26;20339;-59
2024/04/08 11:44:41;;;;;;;7.25;1.92;;;;;;;;;;5413446;26;20384;-59
2024/04/08 11:47:13;;;;;;;10.93;2.22;;;;;;;;;;5406993;26;20243;-59
2024/04/08 11:49:42;;;;;;;8.90;2.30;;;;;;;;;;5414789;26;20232;-59
2024/04/08 11:52:12;;;;;;;10.30;3.70;;;;;;;;;;5417361;26;20238;-59
2024/04/08 11:54:40;;;;;;;9.88;2.83;;;;;;;;;;5413377;26;20792;-59
2024/04/08 11:57:11;;;;;;;11.50;2.08;;;;;;;;;;5415057;26;20290;-58
2024/04/08 11:59:37;;;;;;;9.25;2.28;;;;;;;;;;5414383;26;20236;-59
2024/04/08 12:02:06;;;;;;;12.63;2.40;;;;;;;;;;5416008;26;20239;-59
2024/04/08 12:04:32;;;;;;;16.73;2.58;;;;;;;;;;5429054;26;20282;-59
2024/04/08 12:07:05;;;;;;;9.45;2.80;;;;;;;;;;5408139;26;20279;-59
2024/04/08 12:09:31;;;;;;;15.27;2.25;;;;;;;;;;5403957;26;20782;-59
2024/04/08 12:12:00;;;;;;;12.60;2.33;;;;;;;;;;5401703;26;20279;-60
2024/04/08 12:14:26;;;;;;;10.13;1.85;;;;;;;;;;5403677;26;20630;-59
2024/04/08 12:16:56;;;;;;;14.68;1.85;;;;;;;;;;5404283;26;20270;-59
2024/04/08 12:19:22;;;;;;;16.45;3.35;;;;;;;;;;5395778;26;20231;-59
2024/04/08 12:21:51;;;;;;;14.95;3.13;;;;;;;;;;5411443;26;20231;-59
2024/04/08 12:24:20;;;;;;;12.88;2.35;;;;;;;;;;5393917;26;20231;-59
2024/04/08 12:26:49;;;;;;;10.40;2.72;;;;;;;;;;5409486;26;20274;-59
2024/04/08 12:29:15;;;;;;;19.45;2.20;;;;;;;;;;5395969;26;20277;-59
2024/04/08 12:31:44;;;;;;;12.10;3.47;;;;;;;;;;5402530;26;20601;-58
2024/04/08 12:34:11;;;;;;;11.30;2.33;;;;;;;;;;5393087;26;20327;-58
2024/04/08 12:36:40;;;;;;;8.88;2.88;;;;;;;;;;5403857;26;20239;-59
2024/04/08 12:39:06;;;;;;;20.85;2.47;;;;;;;;;;5399857;26;20270;-59
2024/04/08 12:41:37;;;;;;;21.10;3.47;;;;;;;;;;5413131;26;20277;-59
2024/04/08 12:44:04;;;;;;;12.43;2.45;;;;;;;;;;5392121;26;20243;-59
2024/04/08 12:46:33;;;;;;;17.67;3.05;;;;;;;;;;5405262;26;20814;-59
2024/04/08 12:48:59;;;;;;;16.48;3.38;;;;;;;;;;5402935;26;20240;-59
2024/04/08 12:51:28;;;;;;;20.40;3.05;;;;;;;;;;5401669;26;20614;-60
2024/04/08 12:53:55;;;;;;;10.25;2.55;;;;;;;;;;5389126;26;20809;-59
2024/04/08 12:56:24;;;;;;;14.32;3.00;;;;;;;;;;5403564;26;20575;-59
2024/04/08 12:58:56;;;;;;;14.23;2.75;;;;;;;;;;5408262;26;20239;-59
2024/04/08 13:01:25;;;;;;;9.25;2.05;;;;;;;;;;5396215;26;20236;-59
2024/04/08 13:03:52;;;;;;;15.18;2.92;;;;;;;;;;5385325;26;20236;-59
2024/04/08 13:06:21;;;;;;;13.27;3.13;;;;;;;;;;5393587;26;20237;-59
2024/04/08 13:08:47;;;;;;;13.55;3.45;;;;;;;;;;5402504;26;20278;-60
2024/04/08 13:11:16;;;;;;;16.85;3.25;;;;;;;;;;5401996;26;20344;-59
2024/04/08 13:13:42;;;;;;;13.05;3.13;;;;;;;;;;5387555;26;20248;-60
2024/04/08 13:16:14;;;;;;;16.83;3.20;;;;;;;;;;5408629;26;20270;-59
2024/04/08 13:18:41;;;;;;;14.55;2.97;;;;;;;;;;5411735;26;20227;-59
2024/04/08 13:21:10;;;;;;;21.52;3.95;;;;;;;;;;5395920;26;20225;-59
2024/04/08 13:23:36;;;;;;;11.43;2.28;;;;;;;;;;5398379;26;20290;-60
2024/04/08 13:26:05;;;;;;;30.15;5.53;;;;;;;;;;5407020;26;20247;-59
2024/04/08 13:28:31;;;;;;;15.30;3.58;;;;;;;;;;5404380;26;20279;-60
2024/04/08 13:31:01;;;;;;;16.45;4.45;;;;;;;;;;5399664;26;20227;-59
2024/04/08 13:33:30;;;;;;;13.70;3.22;;;;;;;;;;5394082;26;20243;-59
2024/04/08 13:35:59;;;;;;;19.67;3.60;;;;;;;;;;5397809;26;20332;-59
2024/04/08 13:38:25;;;;;;;127.50;27.10;;;;;;;;;;5409793;26;20243;-60
2024/04/08 13:40:54;;;;;;;87.78;13.98;;;;;;;;;;5387668;26;20743;-60
2024/04/08 13:43:20;;;;;;;26.95;5.50;;;;;;;;;;5398530;26;20270;-60
2024/04/08 13:45:49;;;;;;;19.63;2.97;;;;;;;;;;5398890;26;20240;-59
2024/04/08 13:48:15;;;;;;;21.38;3.45;;;;;;;;;;5396348;26;20227;-59
2024/04/08 13:50:47;;;;;;;14.23;2.88;;;;;;;;;;5400480;26;20455;-59
2024/04/08 13:53:13;;;;;;;16.95;3.28;;;;;;;;;;5401363;26;20287;-59